Time;durP1;ratioP1;P1;durP2;ratioP2;P2;SDS_P1;SDS_P2;PMS_P1;PMS_P2;Temp;Humidity;BMP_temperature;BMP_pressure;BME280_temperature;BME280_humidity;BME280_pressure;Samples;Min_cycle;Max_cycle;Signal;HPM_P1;HPM_P2
2022/03/31 00:00:25;;;;;;;7.93;4.50;;;1.60;56.00;;;;;;5055606;28;20068;-47
2022/03/31 00:02:50;;;;;;;10.63;5.03;;;1.60;55.60;;;;;;5067457;28;20071;-50
2022/03/31 00:05:16;;;;;;;10.55;5.10;;;1.60;55.60;;;;;;5068954;28;20029;-53
2022/03/31 00:07:53;;;;;;;11.88;4.70;;;1.50;55.50;;;;;;5049244;28;20032;-50
2022/03/31 00:10:21;;;;;;;11.40;4.45;;;1.50;55.10;;;;;;5069008;28;20081;-50
2022/03/31 00:12:47;;;;;;;11.07;5.18;;;1.50;55.20;;;;;;5067069;28;20071;-51
2022/03/31 00:15:12;;;;;;;8.35;4.55;;;1.50;54.60;;;;;;5069049;28;20056;-52
2022/03/31 00:17:38;;;;;;;9.60;4.03;;;1.40;54.90;;;;;;5067247;28;20111;-51
2022/03/31 00:20:04;;;;;;;7.93;4.25;;;1.40;55.00;;;;;;5068950;28;20770;-54
2022/03/31 00:22:30;;;;;;;9.57;4.53;;;1.40;55.20;;;;;;5067073;28;20033;-48
2022/03/31 00:24:55;;;;;;;10.55;4.60;;;1.40;54.20;;;;;;5068900;28;20028;-52
2022/03/31 00:27:21;;;;;;;9.02;4.70;;;1.40;54.50;;;;;;5067010;28;20037;-55
2022/03/31 00:29:47;;;;;;;10.65;4.53;;;1.30;54.60;;;;;;5068544;28;20403;-49
2022/03/31 00:32:13;;;;;;;10.52;4.05;;;1.30;54.90;;;;;;5067147;28;20052;-53
2022/03/31 00:34:39;;;;;;;12.57;3.90;;;1.30;55.00;;;;;;5068686;28;20028;-53
2022/03/31 00:37:04;;;;;;;10.05;4.95;;;1.30;55.10;;;;;;5066883;28;20437;-52
2022/03/31 00:39:31;;;;;;;7.88;4.28;;;1.30;54.50;;;;;;5068619;28;20234;-55
2022/03/31 00:41:59;;;;;;;7.55;4.10;;;1.20;55.80;;;;;;5067143;28;20021;-50
2022/03/31 00:44:26;;;;;;;10.38;5.10;;;1.20;55.80;;;;;;5068540;28;20533;-51
2022/03/31 00:46:53;;;;;;;9.10;4.45;;;1.20;56.40;;;;;;5050730;28;20090;-50
2022/03/31 00:49:20;;;;;;;8.32;4.13;;;1.20;55.40;;;;;;5068386;28;20060;-51
2022/03/31 00:51:47;;;;;;;12.20;4.30;;;1.20;55.50;;;;;;5059839;28;20442;-48
2022/03/31 00:54:14;;;;;;;7.53;4.47;;;1.20;55.90;;;;;;5068728;28;20027;-49
2022/03/31 00:56:41;;;;;;;7.93;4.00;;;1.20;55.40;;;;;;5067369;28;20017;-54
2022/03/31 00:59:09;;;;;;;8.68;4.50;;;1.20;55.50;;;;;;5062953;28;20479;-51
2022/03/31 01:01:38;;;;;;;7.53;4.20;;;1.10;55.40;;;;;;5072380;28;20421;-52
2022/03/31 01:04:08;;;;;;;8.73;4.30;;;1.10;55.70;;;;;;5058058;28;20056;-51
2022/03/31 01:06:34;;;;;;;8.52;4.18;;;1.00;56.00;;;;;;5052180;28;20392;-48
2022/03/31 01:09:00;;;;;;;13.00;4.13;;;1.00;56.10;;;;;;5061726;28;20040;-50
2022/03/31 01:11:26;;;;;;;8.27;4.03;;;1.00;56.80;;;;;;5072218;28;20048;-50
2022/03/31 01:13:52;;;;;;;10.10;4.32;;;0.90;57.10;;;;;;5060118;28;20500;-54
2022/03/31 01:16:18;;;;;;;7.43;4.22;;;0.90;56.90;;;;;;5052182;28;20028;-55
2022/03/31 01:18:43;;;;;;;11.27;3.72;;;0.80;57.80;;;;;;5059402;28;20202;-53
2022/03/31 01:21:12;;;;;;;7.03;4.03;;;0.70;58.10;;;;;;5072040;28;20475;-50
2022/03/31 01:23:37;;;;;;;8.55;4.70;;;0.70;59.60;;;;;;5061839;28;20032;-49
2022/03/31 01:26:10;;;;;;;11.35;5.32;;;0.70;59.60;;;;;;5052040;28;20021;-51
2022/03/31 01:28:39;;;;;;;6.85;4.30;;;0.60;59.90;;;;;;5057920;28;20040;-50
2022/03/31 01:31:04;;;;;;;10.27;3.80;;;0.50;60.00;;;;;;5071967;28;20081;-52
2022/03/31 01:33:31;;;;;;;11.35;4.68;;;0.40;59.40;;;;;;5062408;28;20045;-50
2022/03/31 01:35:57;;;;;;;6.97;3.92;;;0.40;62.30;;;;;;5052043;28;20104;-49
2022/03/31 01:38:22;;;;;;;8.00;3.42;;;0.30;63.10;;;;;;5056024;28;20459;-48
2022/03/31 01:40:48;;;;;;;12.38;4.07;;;0.30;63.60;;;;;;5071721;28;20036;-51
2022/03/31 01:43:14;;;;;;;11.68;4.10;;;0.20;62.50;;;;;;5064819;28;20032;-50
2022/03/31 01:45:40;;;;;;;10.43;4.40;;;0.20;63.20;;;;;;5055307;28;20048;-53
2022/03/31 01:48:05;;;;;;;8.98;4.32;;;0.20;63.20;;;;;;5069747;28;20032;-54
2022/03/31 01:50:31;;;;;;;9.32;3.67;;;0.10;64.10;;;;;;5071601;28;20570;-49
2022/03/31 01:52:57;;;;;;;9.60;3.85;;;-0.10;64.10;;;;;;5046710;28;20418;-50
2022/03/31 01:55:23;;;;;;;6.93;4.22;;;-0.10;65.40;;;;;;5051384;28;20028;-54
2022/03/31 01:57:48;;;;;;;8.45;3.40;;;-0.10;66.50;;;;;;5068829;28;20040;-50
2022/03/31 02:00:14;;;;;;;6.82;3.72;;;-0.10;66.80;;;;;;5071637;28;20024;-51
2022/03/31 02:02:41;;;;;;;6.60;3.53;;;-0.20;65.70;;;;;;5049932;28;20104;-54
2022/03/31 02:05:07;;;;;;;8.90;4.35;;;-0.30;65.60;;;;;;5050125;28;20033;-53
2022/03/31 02:07:34;;;;;;;7.18;3.80;;;-0.30;67.00;;;;;;5069641;28;20036;-50
2022/03/31 02:09:59;;;;;;;15.13;4.70;;;-0.30;66.40;;;;;;5069475;28;20544;-51
2022/03/31 02:12:25;;;;;;;10.57;4.53;;;-0.30;66.00;;;;;;5051729;28;20071;-53
2022/03/31 02:14:51;;;;;;;9.20;4.35;;;-0.30;66.40;;;;;;5050378;28;20108;-53
2022/03/31 02:17:17;;;;;;;8.60;3.80;;;-0.30;66.00;;;;;;5070335;28;20174;-50
2022/03/31 02:19:42;;;;;;;10.30;3.78;;;-0.40;65.90;;;;;;5066968;28;20097;-52
2022/03/31 02:22:08;;;;;;;7.15;4.38;;;-0.40;64.90;;;;;;5051518;28;20551;-50
2022/03/31 02:24:35;;;;;;;7.15;3.85;;;-0.50;66.70;;;;;;5052303;28;20139;-55
2022/03/31 02:27:01;;;;;;;10.25;5.20;;;-0.60;67.30;;;;;;5070351;28;20055;-52
2022/03/31 02:29:26;;;;;;;8.73;4.47;;;-0.60;69.40;;;;;;5064533;28;20051;-51
2022/03/31 02:31:52;;;;;;;8.23;4.20;;;-0.60;68.00;;;;;;5051278;28;20021;-50
2022/03/31 02:34:17;;;;;;;10.23;4.45;;;-0.60;69.60;;;;;;5054159;28;20479;-51
2022/03/31 02:36:44;;;;;;;7.97;4.25;;;-0.70;70.80;;;;;;5069932;28;20039;-55
2022/03/31 02:39:10;;;;;;;9.57;3.97;;;-0.60;69.10;;;;;;5062155;28;20037;-53
2022/03/31 02:41:37;;;;;;;6.32;3.65;;;-0.70;69.80;;;;;;5051071;28;20520;-52
2022/03/31 02:44:03;;;;;;;12.40;5.07;;;-0.70;67.90;;;;;;5056229;28;20442;-49
2022/03/31 02:46:29;;;;;;;9.10;4.78;;;-0.80;69.00;;;;;;5058814;28;20075;-50
2022/03/31 02:48:55;;;;;;;8.95;4.28;;;-0.70;70.20;;;;;;5068076;28;20483;-48
2022/03/31 02:51:21;;;;;;;11.20;3.90;;;-0.80;70.80;;;;;;5052434;28;20036;-51
2022/03/31 02:56:32;;;;;;;9.50;3.95;;;-0.90;71.00;;;;;;5050306;28;20032;-49
2022/03/31 02:58:57;;;;;;;7.13;4.05;;;-1.00;71.50;;;;;;5057039;28;20033;-53
2022/03/31 03:01:23;;;;;;;6.43;3.17;;;-1.00;73.00;;;;;;5069330;28;20025;-49
2022/03/31 03:03:51;;;;;;;8.40;4.38;;;-1.00;71.80;;;;;;5048682;28;20033;-49
2022/03/31 03:06:19;;;;;;;10.43;3.80;;;-1.00;71.40;;;;;;5051467;28;20430;-50
2022/03/31 03:08:45;;;;;;;8.00;3.97;;;-1.10;71.00;;;;;;5048458;28;20518;-55
2022/03/31 03:11:11;;;;;;;9.30;3.60;;;-1.00;71.60;;;;;;5069369;28;20649;-50
2022/03/31 03:13:36;;;;;;;10.73;3.92;;;-1.10;71.60;;;;;;5048226;28;20041;-55
2022/03/31 03:16:08;;;;;;;7.97;3.50;;;-1.20;72.40;;;;;;5069215;28;20267;-48
2022/03/31 03:18:34;;;;;;;5.90;2.92;;;-1.20;72.50;;;;;;5047221;28;20033;-48
2022/03/31 03:21:00;;;;;;;6.03;3.10;;;-1.20;72.20;;;;;;5069207;28;20039;-49
2022/03/31 03:23:26;;;;;;;6.30;3.20;;;-1.30;73.50;;;;;;5048282;28;20029;-50
2022/03/31 03:25:52;;;;;;;8.38;3.33;;;-1.30;73.80;;;;;;5049904;28;20032;-53
2022/03/31 03:28:17;;;;;;;8.18;3.45;;;-1.30;72.80;;;;;;5066734;28;20426;-54
2022/03/31 03:30:43;;;;;;;6.18;3.25;;;-1.30;73.90;;;;;;5069908;28;20074;-50
2022/03/31 03:33:08;;;;;;;7.10;3.45;;;-1.30;74.90;;;;;;5048269;28;20108;-52
2022/03/31 03:35:34;;;;;;;7.63;3.25;;;-1.30;75.00;;;;;;5049505;28;20091;-53
2022/03/31 03:38:00;;;;;;;6.88;3.13;;;-1.30;74.00;;;;;;5066797;28;20492;-50
2022/03/31 03:40:26;;;;;;;8.40;3.85;;;-1.30;74.60;;;;;;5069508;28;20120;-53
2022/03/31 03:42:53;;;;;;;8.00;3.10;;;-1.30;74.30;;;;;;5047785;28;20021;-50
2022/03/31 03:45:19;;;;;;;7.82;3.70;;;-1.30;72.70;;;;;;5049974;28;20472;-54
2022/03/31 03:47:45;;;;;;;6.88;3.72;;;-1.30;73.80;;;;;;5067272;28;20025;-51
2022/03/31 03:50:11;;;;;;;4.75;2.45;;;-1.40;74.90;;;;;;5069559;28;20027;-48
2022/03/31 03:52:37;;;;;;;5.13;2.92;;;-1.40;74.10;;;;;;5042847;28;20037;-48
2022/03/31 03:55:03;;;;;;;9.07;3.55;;;-1.50;74.90;;;;;;5049398;28;20424;-53
2022/03/31 03:57:30;;;;;;;7.20;3.70;;;-1.50;74.50;;;;;;5048842;28;20051;-52
2022/03/31 03:59:56;;;;;;;6.55;3.17;;;-1.60;75.50;;;;;;5066541;28;20028;-51
2022/03/31 04:02:21;;;;;;;7.38;3.83;;;-1.40;75.40;;;;;;5049556;28;20543;-50
2022/03/31 04:04:47;;;;;;;6.38;3.00;;;-1.50;74.50;;;;;;5048519;28;20043;-53
2022/03/31 04:07:13;;;;;;;5.68;2.95;;;-1.60;74.70;;;;;;5068421;28;20024;-53
2022/03/31 04:09:38;;;;;;;4.43;2.90;;;-1.60;76.40;;;;;;5064268;28;20514;-47
2022/03/31 04:12:04;;;;;;;6.80;2.88;;;-1.60;77.00;;;;;;5067105;28;20048;-54
2022/03/31 04:14:30;;;;;;;5.20;2.85;;;-1.60;77.40;;;;;;5049483;28;20036;-54
2022/03/31 04:16:56;;;;;;;11.65;3.45;;;-1.60;76.80;;;;;;5048076;28;20033;-52
2022/03/31 04:19:22;;;;;;;8.45;3.00;;;-1.60;77.00;;;;;;5068316;28;20036;-52
2022/03/31 04:21:47;;;;;;;8.05;2.90;;;-1.70;77.50;;;;;;5065138;28;20032;-52
2022/03/31 04:24:13;;;;;;;6.38;2.70;;;-1.70;79.10;;;;;;5049576;28;20029;-49
2022/03/31 04:26:39;;;;;;;8.05;3.90;;;-1.70;78.60;;;;;;5050119;28;20053;-50
2022/03/31 04:29:08;;;;;;;6.38;3.30;;;-1.70;79.00;;;;;;5068185;28;20047;-50
2022/03/31 04:31:40;;;;;;;6.43;2.83;;;-1.60;77.60;;;;;;5062361;28;20036;-54
2022/03/31 04:34:08;;;;;;;6.40;3.13;;;-1.60;78.10;;;;;;5049067;28;20029;-48
2022/03/31 04:36:33;;;;;;;10.95;3.45;;;-1.70;77.30;;;;;;5050856;28;20032;-47
2022/03/31 04:38:59;;;;;;;3.97;2.83;;;-1.60;78.20;;;;;;5068269;28;20028;-53
2022/03/31 04:41:25;;;;;;;7.53;2.92;;;-1.70;78.20;;;;;;5049915;28;20495;-49
2022/03/31 04:43:51;;;;;;;4.43;2.55;;;-1.70;78.40;;;;;;5067646;28;20044;-54
2022/03/31 04:46:18;;;;;;;5.93;2.95;;;-1.60;78.50;;;;;;5048073;28;20072;-52
2022/03/31 04:48:44;;;;;;;8.45;3.35;;;-1.70;79.10;;;;;;5068017;28;20055;-52
2022/03/31 04:51:09;;;;;;;8.00;3.50;;;-1.70;78.70;;;;;;5040992;28;20025;-48
2022/03/31 04:53:35;;;;;;;4.70;2.95;;;-1.70;78.90;;;;;;5048626;28;20036;-50
2022/03/31 04:56:00;;;;;;;6.50;2.90;;;-1.60;78.90;;;;;;5066134;28;20372;-53
2022/03/31 04:58:26;;;;;;;6.75;3.45;;;-1.60;78.80;;;;;;5068570;28;20086;-53
2022/03/31 05:00:52;;;;;;;4.38;2.55;;;-1.50;78.90;;;;;;5047409;28;20025;-49
2022/03/31 05:03:17;;;;;;;4.88;2.55;;;-1.50;77.80;;;;;;5048700;28;20025;-54
2022/03/31 05:05:42;;;;;;;6.93;2.90;;;-1.40;76.50;;;;;;5066015;28;20044;-48
2022/03/31 05:08:08;;;;;;;7.43;3.15;;;-1.30;74.90;;;;;;5049549;28;20041;-53
2022/03/31 05:10:34;;;;;;;8.65;2.97;;;-1.30;73.90;;;;;;5059982;28;20033;-53
2022/03/31 05:13:00;;;;;;;10.00;3.33;;;-1.20;73.10;;;;;;5058479;28;20035;-50
2022/03/31 05:15:25;;;;;;;8.05;2.75;;;-1.10;71.90;;;;;;5047884;28;20487;-50
2022/03/31 05:17:51;;;;;;;7.53;3.22;;;-1.00;71.30;;;;;;5053891;28;20121;-48
2022/03/31 05:20:56;;;;;;;7.45;2.85;;;-0.90;70.20;;;;;;5066431;28;20083;-51
2022/03/31 05:24:21;;;;;;;8.07;3.45;;;-0.80;69.30;;;;;;5045256;28;20040;-49
2022/03/31 05:27:47;;;;;;;6.07;2.85;;;-0.70;67.30;;;;;;5059578;28;20032;-54
2022/03/31 05:31:12;;;;;;;5.97;3.33;;;-0.50;65.10;;;;;;5061192;28;20045;-51
2022/03/31 05:34:38;;;;;;;6.53;2.50;;;-0.30;63.00;;;;;;5063864;28;20476;-49
2022/03/31 05:38:03;;;;;;;6.10;3.22;;;0.10;58.80;;;;;;5044171;28;20037;-51
2022/03/31 05:41:28;;;;;;;6.55;2.88;;;0.70;55.50;;;;;;5046932;28;20182;-51
2022/03/31 05:44:54;;;;;;;6.50;2.90;;;1.30;51.40;;;;;;5064851;28;20040;-49
2022/03/31 05:48:19;;;;;;;7.18;3.03;;;2.00;45.70;;;;;;5053449;28;20048;-52
2022/03/31 05:51:44;;;;;;;5.78;2.92;;;2.00;44.30;;;;;;5068482;28;20404;-56
2022/03/31 05:55:10;;;;;;;5.78;2.88;;;1.90;42.60;;;;;;5067036;28;20056;-52
2022/03/31 05:58:35;;;;;;;4.63;2.58;;;2.70;38.90;;;;;;5054595;28;20323;-53
2022/03/31 06:01:15;;;;;;;4.15;2.67;;;3.60;35.40;;;;;;5066409;28;20049;-60
2022/03/31 06:03:40;;;;;;;5.28;3.08;;;3.30;34.00;;;;;;5067169;28;20064;-59
2022/03/31 06:06:05;;;;;;;6.43;3.03;;;3.20;34.30;;;;;;5050837;28;20029;-59
2022/03/31 06:08:31;;;;;;;7.43;3.17;;;3.20;34.40;;;;;;5050651;28;20056;-59
2022/03/31 06:10:57;;;;;;;4.97;2.65;;;3.10;34.30;;;;;;5068345;28;20036;-59
2022/03/31 06:13:22;;;;;;;3.80;2.40;;;3.60;32.90;;;;;;5064003;28;20032;-60
2022/03/31 06:15:48;;;;;;;8.30;3.42;;;3.60;31.20;;;;;;5047463;28;20554;-60
2022/03/31 06:18:14;;;;;;;5.35;3.35;;;3.60;32.30;;;;;;5049875;28;20041;-60
2022/03/31 06:20:40;;;;;;;4.63;2.63;;;3.80;31.70;;;;;;5054964;28;20025;-60
2022/03/31 06:23:06;;;;;;;5.85;2.97;;;4.50;30.20;;;;;;5070063;28;20037;-60
2022/03/31 06:25:31;;;;;;;4.28;2.65;;;4.60;28.20;;;;;;5061315;28;20052;-60
2022/03/31 06:27:57;;;;;;;4.72;2.72;;;5.40;27.90;;;;;;5051343;28;20094;-60
2022/03/31 06:30:23;;;;;;;6.65;3.30;;;5.60;25.40;;;;;;5068023;28;20036;-60
2022/03/31 06:32:48;;;;;;;4.07;2.47;;;6.00;24.10;;;;;;5051072;28;20036;-60
2022/03/31 06:35:15;;;;;;;5.30;2.90;;;6.00;24.20;;;;;;5050264;28;20036;-60
2022/03/31 06:37:42;;;;;;;4.70;2.70;;;5.60;23.60;;;;;;5051118;28;20135;-60
2022/03/31 06:40:10;;;;;;;5.88;3.33;;;5.60;24.20;;;;;;5068211;28;20017;-60
2022/03/31 06:42:36;;;;;;;5.50;3.10;;;6.10;22.40;;;;;;5050590;28;20039;-60
2022/03/31 06:45:02;;;;;;;5.80;2.67;;;6.10;22.70;;;;;;5067673;28;20502;-60
2022/03/31 06:47:28;;;;;;;5.90;3.13;;;5.60;23.40;;;;;;5050772;28;20045;-60
2022/03/31 06:49:53;;;;;;;7.55;3.17;;;5.70;23.10;;;;;;5067736;28;20070;-61
2022/03/31 06:52:19;;;;;;;5.55;2.83;;;5.60;22.40;;;;;;5070216;28;20032;-61
2022/03/31 06:54:44;;;;;;;5.72;3.60;;;6.60;21.70;;;;;;5048703;28;20021;-60
2022/03/31 06:57:10;;;;;;;9.68;2.83;;;7.00;20.60;;;;;;5050330;28;20025;-62
2022/03/31 06:59:35;;;;;;;7.47;3.47;;;7.60;18.70;;;;;;5067350;28;20258;-60
2022/03/31 07:02:01;;;;;;;3.95;2.47;;;7.40;17.90;;;;;;5070107;28;20028;-61
2022/03/31 07:04:27;;;;;;;7.38;3.42;;;7.90;17.60;;;;;;5048700;28;20056;-61
2022/03/31 07:06:52;;;;;;;8.10;3.40;;;7.60;18.00;;;;;;5050122;28;20031;-61
2022/03/31 07:09:18;;;;;;;6.38;3.53;;;7.00;18.10;;;;;;5067195;28;20033;-60
2022/03/31 07:11:43;;;;;;;5.47;3.40;;;7.80;17.80;;;;;;5070122;28;20037;-61
2022/03/31 07:14:09;;;;;;;8.30;3.60;;;8.90;15.80;;;;;;5048620;28;20029;-61
2022/03/31 07:16:34;;;;;;;3.83;2.83;;;9.70;13.90;;;;;;5042564;28;20438;-61
2022/03/31 07:19:01;;;;;;;3.42;2.65;;;10.80;14.10;;;;;;5069164;28;20056;-61
2022/03/31 07:21:27;;;;;;;5.45;3.42;;;10.60;11.00;;;;;;5067849;28;20103;-61
2022/03/31 07:23:53;;;;;;;6.35;3.50;;;11.10;11.60;;;;;;5050161;28;20091;-61
2022/03/31 07:26:19;;;;;;;5.30;3.42;;;11.00;9.90;;;;;;5048777;28;20037;-61
2022/03/31 07:28:44;;;;;;;6.30;3.08;;;11.20;11.20;;;;;;5069225;28;20045;-61
2022/03/31 07:31:10;;;;;;;7.30;3.83;;;10.60;9.00;;;;;;5065939;28;20109;-62
2022/03/31 07:33:35;;;;;;;6.03;3.22;;;10.60;11.10;;;;;;5050136;28;20029;-61
2022/03/31 07:36:01;;;;;;;5.10;3.20;;;12.00;11.30;;;;;;5050999;28;20033;-61
2022/03/31 07:38:26;;;;;;;5.90;2.95;;;11.70;8.80;;;;;;5068948;28;20232;-61
2022/03/31 07:40:52;;;;;;;12.73;3.45;;;11.20;9.40;;;;;;5062967;28;20035;-62
2022/03/31 07:43:18;;;;;;;4.82;3.58;;;10.90;9.60;;;;;;5049768;28;20422;-61
2022/03/31 07:45:45;;;;;;;7.55;3.88;;;10.80;9.60;;;;;;5057586;28;20076;-61
2022/03/31 07:48:15;;;;;;;5.53;3.75;;;10.30;9.50;;;;;;5069449;28;20070;-61
2022/03/31 07:50:41;;;;;;;6.50;3.35;;;10.20;10.20;;;;;;5060547;28;20043;-62
2022/03/31 07:53:07;;;;;;;6.85;3.53;;;9.40;10.80;;;;;;5049951;28;20112;-61
2022/03/31 07:55:32;;;;;;;5.22;3.47;;;9.40;12.30;;;;;;5054467;28;20105;-61
2022/03/31 07:57:58;;;;;;;9.48;4.00;;;9.20;11.50;;;;;;5068443;28;20059;-61
2022/03/31 08:00:24;;;;;;;8.65;3.30;;;9.40;12.10;;;;;;5047639;28;20021;-61
2022/03/31 08:02:51;;;;;;;5.15;3.13;;;9.70;11.70;;;;;;5068329;28;20591;-61
2022/03/31 08:05:25;;;;;;;7.10;3.60;;;10.20;11.80;;;;;;5046685;28;20067;-61
2022/03/31 08:07:51;;;;;;;5.63;3.42;;;10.20;11.80;;;;;;5048929;28;20408;-61
2022/03/31 08:10:18;;;;;;;8.13;4.07;;;10.40;11.10;;;;;;5066195;28;20123;-62
2022/03/31 08:12:45;;;;;;;6.88;3.63;;;9.40;11.20;;;;;;5049246;28;20036;-61
2022/03/31 08:15:14;;;;;;;4.25;3.08;;;10.40;10.90;;;;;;5063177;28;20157;-61
2022/03/31 08:17:39;;;;;;;8.45;3.22;;;11.40;9.70;;;;;;5048935;28;20078;-61
2022/03/31 08:20:07;;;;;;;10.63;4.00;;;11.80;9.00;;;;;;5066031;28;20275;-61
2022/03/31 08:22:33;;;;;;;6.05;3.63;;;10.90;8.50;;;;;;5030959;28;20064;-61
2022/03/31 08:24:59;;;;;;;8.40;3.53;;;10.00;9.60;;;;;;5066219;28;20056;-61
2022/03/31 08:27:26;;;;;;;5.72;3.10;;;10.80;9.40;;;;;;5068762;28;20066;-61
2022/03/31 08:29:51;;;;;;;5.63;3.40;;;10.90;9.70;;;;;;5046934;28;20504;-62
2022/03/31 08:32:18;;;;;;;6.50;3.58;;;11.00;9.00;;;;;;5048742;28;20083;-61
2022/03/31 08:34:44;;;;;;;5.88;3.42;;;9.70;9.70;;;;;;5066241;28;20028;-61
2022/03/31 08:37:09;;;;;;;5.25;3.42;;;9.40;10.60;;;;;;5068853;28;20062;-61
2022/03/31 08:39:35;;;;;;;7.45;3.80;;;9.80;10.90;;;;;;5047174;28;20276;-61
2022/03/31 08:42:01;;;;;;;7.82;3.40;;;9.90;10.50;;;;;;5048592;28;20033;-61
2022/03/31 08:44:28;;;;;;;4.47;3.33;;;10.00;10.20;;;;;;5065773;28;20028;-62
2022/03/31 08:46:53;;;;;;;6.57;4.20;;;10.50;9.70;;;;;;5054129;28;20052;-61
2022/03/31 08:49:19;;;;;;;6.10;3.40;;;10.40;9.50;;;;;;5065653;28;20309;-61
2022/03/31 08:51:46;;;;;;;5.85;3.65;;;11.50;8.80;;;;;;5068863;28;20036;-61
2022/03/31 08:54:12;;;;;;;6.90;3.63;;;11.60;8.60;;;;;;5047146;28;20044;-61
2022/03/31 08:56:38;;;;;;;4.90;3.25;;;11.40;8.70;;;;;;5048256;28;20021;-61
2022/03/31 08:59:04;;;;;;;7.15;3.78;;;12.30;7.30;;;;;;5067740;28;20166;-62
2022/03/31 09:01:32;;;;;;;5.15;3.13;;;12.60;7.00;;;;;;5068418;28;20085;-61
2022/03/31 09:03:57;;;;;;;7.18;2.97;;;12.90;6.50;;;;;;5048686;28;20479;-61
2022/03/31 09:06:25;;;;;;;7.55;3.63;;;12.50;7.20;;;;;;5046581;28;20040;-61
2022/03/31 09:08:58;;;;;;;5.97;3.58;;;13.50;7.50;;;;;;5067828;28;20040;-62
2022/03/31 09:11:33;;;;;;;4.90;3.80;;;13.10;6.20;;;;;;5065934;28;20230;-61
2022/03/31 09:14:00;;;;;;;6.97;3.50;;;13.30;6.00;;;;;;5048635;28;20056;-61
2022/03/31 09:16:40;;;;;;;5.40;3.88;;;13.10;7.30;;;;;;5043291;28;20530;-61
2022/03/31 09:19:10;;;;;;;7.63;4.05;;;12.10;7.00;;;;;;5050387;28;20065;-61
2022/03/31 09:21:57;;;;;;;4.53;3.60;;;12.50;7.90;;;;;;5051923;28;20029;-61
2022/03/31 09:24:26;;;;;;;9.45;4.25;;;12.20;7.50;;;;;;5050233;28;20065;-61
2022/03/31 09:26:53;;;;;;;7.55;4.40;;;11.70;8.40;;;;;;5052275;28;20029;-67
2022/03/31 09:29:23;;;;;;;7.97;4.10;;;11.30;9.70;;;;;;5069193;28;20047;-67
2022/03/31 09:31:51;;;;;;;7.32;4.28;;;11.20;9.50;;;;;;5072058;28;20021;-67
2022/03/31 09:34:17;;;;;;;9.57;3.97;;;11.20;10.00;;;;;;5050046;28;20044;-67
2022/03/31 09:36:48;;;;;;;7.60;4.15;;;11.40;9.40;;;;;;5051942;28;20032;-67
2022/03/31 09:39:16;;;;;;;7.78;4.03;;;11.00;9.90;;;;;;5049967;28;20025;-67
2022/03/31 09:41:43;;;;;;;10.55;4.47;;;11.70;9.50;;;;;;5051969;28;20442;-66
2022/03/31 09:44:21;;;;;;;5.93;3.85;;;12.00;9.00;;;;;;5069080;28;20172;-66
2022/03/31 09:46:47;;;;;;;8.30;4.25;;;11.60;9.40;;;;;;5060025;28;20045;-67
2022/03/31 09:49:25;;;;;;;6.07;4.18;;;11.00;9.80;;;;;;5068900;28;20040;-66
2022/03/31 09:52:00;;;;;;;6.90;4.10;;;11.10;10.20;;;;;;5071464;28;20036;-66
2022/03/31 09:54:27;;;;;;;7.85;4.55;;;10.30;11.20;;;;;;5049860;28;20020;-66
2022/03/31 09:56:54;;;;;;;6.20;4.15;;;10.30;11.80;;;;;;5051407;28;20024;-67
2022/03/31 09:59:19;;;;;;;7.75;4.45;;;10.40;11.80;;;;;;5068730;28;20552;-66
2022/03/31 10:01:46;;;;;;;8.70;4.22;;;10.90;11.20;;;;;;5071179;28;20028;-67
2022/03/31 10:04:13;;;;;;;8.65;4.75;;;10.80;11.00;;;;;;5049934;28;20032;-66
2022/03/31 10:06:41;;;;;;;7.43;4.00;;;11.10;10.70;;;;;;5051200;28;20107;-67
2022/03/31 10:09:09;;;;;;;6.80;4.07;;;11.80;10.60;;;;;;5068846;28;20529;-66
2022/03/31 10:11:39;;;;;;;10.32;4.15;;;11.40;10.40;;;;;;5070991;28;20024;-66
2022/03/31 10:14:40;;;;;;;9.63;4.78;;;10.90;10.00;;;;;;5049180;28;20029;-66
2022/03/31 10:17:08;;;;;;;10.38;4.47;;;10.40;11.40;;;;;;5043686;28;20025;-66
2022/03/31 10:19:52;;;;;;;9.27;3.97;;;11.30;10.30;;;;;;5068363;28;20044;-66
2022/03/31 10:25:55;;;;;;;5.32;3.95;;;9.20;13.30;;;;;;5049825;28;20436;-66
2022/03/31 10:29:20;;;;;;;6.45;4.32;;;8.50;15.30;;;;;;5050533;28;20049;-67
2022/03/31 10:33:19;;;;;;;11.90;4.55;;;8.40;15.90;;;;;;5066641;28;20102;-66
2022/03/31 10:36:47;;;;;;;8.50;4.60;;;8.20;17.00;;;;;;5049477;28;20431;-67
2022/03/31 10:40:10;;;;;;;8.90;4.57;;;8.00;16.90;;;;;;5047610;28;20438;-65
2022/03/31 10:43:39;;;;;;;7.05;4.70;;;7.40;17.90;;;;;;5061131;28;20039;-67
2022/03/31 10:47:04;;;;;;;5.85;3.50;;;7.20;18.40;;;;;;5048693;28;20045;-65
2022/03/31 10:50:41;;;;;;;6.57;4.30;;;7.30;19.10;;;;;;5065276;28;20045;-66
2022/03/31 10:54:11;;;;;;;11.43;4.97;;;7.50;19.10;;;;;;5055058;28;20041;-64
2022/03/31 10:57:21;;;;;;;;;;;7.40;18.40;;;;;;5067385;28;20064;-65
2022/03/31 11:00:49;;;;;;;6.90;4.88;;;7.50;18.50;;;;;;5049003;28;19936;-65
2022/03/31 11:04:12;;;;;;;7.95;4.18;;;7.80;18.00;;;;;;5052672;28;20106;-63
2022/03/31 11:07:40;;;;;;;6.65;4.13;;;8.00;18.30;;;;;;5063213;28;20040;-63
2022/03/31 11:11:08;;;;;;;7.72;4.30;;;8.00;17.60;;;;;;5065885;28;20044;-63
2022/03/31 11:14:34;;;;;;;7.63;4.45;;;7.90;18.00;;;;;;5051149;28;20080;-65
2022/03/31 11:18:03;;;;;;;7.97;4.65;;;8.00;18.30;;;;;;5055767;28;20511;-64
2022/03/31 11:21:39;;;;;;;9.90;4.63;;;8.00;17.80;;;;;;5050914;28;20037;-64
2022/03/31 11:25:05;;;;;;;8.75;4.35;;;7.90;17.50;;;;;;5046401;28;20064;-63
2022/03/31 11:28:30;;;;;;;10.75;4.80;;;7.70;18.60;;;;;;5063643;28;20044;-65
2022/03/31 11:31:56;;;;;;;9.55;4.20;;;7.70;18.30;;;;;;5048570;28;20295;-63
2022/03/31 11:35:21;;;;;;;7.70;3.95;;;7.80;18.50;;;;;;5046440;28;20094;-64
2022/03/31 11:38:46;;;;;;;7.63;4.03;;;8.30;17.40;;;;;;5062886;28;20060;-63
2022/03/31 11:42:18;;;;;;;9.15;4.47;;;8.30;17.00;;;;;;5061496;28;20048;-63
2022/03/31 11:45:45;;;;;;;9.02;4.50;;;8.10;17.50;;;;;;5062108;28;20076;-63
2022/03/31 11:49:12;;;;;;;7.05;4.63;;;8.20;17.90;;;;;;5050980;28;20111;-64
2022/03/31 11:52:17;;;;;;;;;;;8.10;17.20;;;;;;5063091;28;20047;-64
2022/03/31 11:55:42;;;;;;;10.68;4.78;;;8.10;17.50;;;;;;5047975;28;19963;-64
2022/03/31 11:59:12;;;;;;;8.10;4.13;;;8.00;17.90;;;;;;5051799;28;20118;-63
2022/03/31 12:01:56;;;;;;;7.53;4.45;;;7.80;18.60;;;;;;5061672;28;20037;-51
2022/03/31 12:04:24;;;;;;;7.90;4.03;;;7.90;17.20;;;;;;5062965;28;20302;-53
2022/03/31 12:06:52;;;;;;;8.20;5.07;;;8.00;17.80;;;;;;5048302;28;20396;-56
2022/03/31 12:09:18;;;;;;;7.03;3.92;;;8.00;16.90;;;;;;5050009;28;20045;-55
2022/03/31 12:11:44;;;;;;;6.47;4.10;;;8.30;17.10;;;;;;5067051;28;20107;-51
2022/03/31 12:14:10;;;;;;;11.90;3.88;;;8.30;16.00;;;;;;5060808;28;20039;-52
2022/03/31 12:16:50;;;;;;;6.72;3.63;;;8.40;15.80;;;;;;5040821;28;20396;-52
2022/03/31 12:19:17;;;;;;;7.68;3.85;;;8.40;15.00;;;;;;5061387;28;20032;-52
2022/03/31 12:21:47;;;;;;;11.70;5.28;;;8.60;15.00;;;;;;5047910;28;20025;-54
2022/03/31 12:24:13;;;;;;;5.25;3.70;;;8.40;14.40;;;;;;5050443;28;20233;-54
2022/03/31 12:26:55;;;;;;;8.15;4.10;;;8.40;14.60;;;;;;5066543;28;20035;-51
2022/03/31 12:29:22;;;;;;;7.57;4.43;;;8.50;14.90;;;;;;5028138;28;20546;-54
2022/03/31 12:32:03;;;;;;;7.00;3.65;;;8.30;14.70;;;;;;5066829;28;20028;-51
2022/03/31 12:34:31;;;;;;;10.63;4.13;;;8.40;14.20;;;;;;5063247;28;20033;-54
2022/03/31 12:36:57;;;;;;;7.72;3.15;;;8.10;13.40;;;;;;5047907;28;20029;-50
2022/03/31 12:39:23;;;;;;;7.65;4.03;;;8.40;14.20;;;;;;5048387;28;20039;-54
2022/03/31 12:41:54;;;;;;;6.65;4.00;;;8.60;13.40;;;;;;5066650;28;20111;-53
2022/03/31 12:44:21;;;;;;;5.10;3.08;;;8.60;12.10;;;;;;5061730;28;20392;-51
2022/03/31 12:47:00;;;;;;;4.93;2.80;;;8.60;11.80;;;;;;5058379;28;20045;-54
2022/03/31 12:49:37;;;;;;;6.55;3.35;;;8.70;11.70;;;;;;5060255;28;20036;-53
2022/03/31 12:52:11;;;;;;;6.95;3.38;;;8.50;10.50;;;;;;5069580;28;20534;-56
2022/03/31 12:54:40;;;;;;;5.35;3.45;;;8.50;10.90;;;;;;5049858;28;20029;-55
2022/03/31 12:57:12;;;;;;;5.57;3.22;;;8.30;11.40;;;;;;5051893;28;20048;-51
2022/03/31 12:59:39;;;;;;;6.32;3.50;;;8.30;11.90;;;;;;5049684;28;20025;-53
2022/03/31 13:02:07;;;;;;;7.53;2.90;;;8.20;12.60;;;;;;5051209;28;20033;-52
2022/03/31 13:04:35;;;;;;;5.80;3.80;;;8.30;11.90;;;;;;5054481;28;20029;-54
2022/03/31 13:07:04;;;;;;;5.18;3.30;;;8.40;12.50;;;;;;5071392;28;20028;-52
2022/03/31 13:09:30;;;;;;;4.35;2.95;;;8.40;11.00;;;;;;5063690;28;20037;-51
2022/03/31 13:11:56;;;;;;;6.82;2.90;;;8.40;10.40;;;;;;5051970;28;20425;-51
2022/03/31 13:14:23;;;;;;;7.15;3.67;;;8.60;10.80;;;;;;5055694;28;20491;-56
2022/03/31 13:16:48;;;;;;;7.95;3.72;;;8.60;10.20;;;;;;5063348;28;20509;-60
2022/03/31 13:19:14;;;;;;;5.30;2.67;;;8.70;9.20;;;;;;5062118;28;20036;-60
2022/03/31 13:21:40;;;;;;;7.47;2.95;;;8.70;9.70;;;;;;5051686;28;20025;-60
2022/03/31 13:24:06;;;;;;;8.38;2.95;;;8.60;10.10;;;;;;5068553;28;20469;-60
2022/03/31 13:26:32;;;;;;;6.05;3.45;;;8.30;10.30;;;;;;5051442;28;20064;-52
2022/03/31 13:29:00;;;;;;;8.48;3.17;;;8.30;10.70;;;;;;5068579;28;20044;-54
2022/03/31 13:31:26;;;;;;;5.68;3.10;;;8.40;9.80;;;;;;5051469;28;20033;-56
2022/03/31 13:33:51;;;;;;;7.57;2.58;;;8.40;9.80;;;;;;5068179;28;20040;-58
2022/03/31 13:36:17;;;;;;;4.28;2.50;;;8.40;9.60;;;;;;5051532;28;20041;-58